sensor_id;sensor_type;location;lat;lon;timestamp;P1;durP1;ratioP1;P2;durP2;ratioP2
22318;SDS011;11327;52.334;9.506;2023-12-20T00:00:00;15.45;;;8.33;;
22318;SDS011;11327;52.334;9.506;2023-12-20T00:03:21;13.48;;;7.47;;
22318;SDS011;11327;52.334;9.506;2023-12-20T00:06:42;11.22;;;6.58;;
22318;SDS011;11327;52.334;9.506;2023-12-20T00:10:03;11.05;;;5.45;;
22318;SDS011;11327;52.334;9.506;2023-12-20T00:13:24;9.48;;;4.97;;
22318;SDS011;11327;52.334;9.506;2023-12-20T00:16:44;9.15;;;4.30;;
22318;SDS011;11327;52.334;9.506;2023-12-20T00:20:05;9.88;;;3.65;;
22318;SDS011;11327;52.334;9.506;2023-12-20T00:23:27;7.75;;;3.40;;
22318;SDS011;11327;52.334;9.506;2023-12-20T00:26:48;10.13;;;3.67;;
22318;SDS011;11327;52.334;9.506;2023-12-20T00:30:09;13.30;;;4.10;;
22318;SDS011;11327;52.334;9.506;2023-12-20T00:33:31;8.45;;;4.35;;
22318;SDS011;11327;52.334;9.506;2023-12-20T00:36:52;10.55;;;5.45;;
22318;SDS011;11327;52.334;9.506;2023-12-20T00:40:12;12.20;;;5.35;;
22318;SDS011;11327;52.334;9.506;2023-12-20T00:43:33;13.10;;;5.47;;
22318;SDS011;11327;52.334;9.506;2023-12-20T00:46:54;10.28;;;4.65;;
22318;SDS011;11327;52.334;9.506;2023-12-20T00:50:15;11.25;;;4.47;;
22318;SDS011;11327;52.334;9.506;2023-12-20T00:53:35;10.10;;;4.10;;
22318;SDS011;11327;52.334;9.506;2023-12-20T00:56:56;8.25;;;2.95;;
22318;SDS011;11327;52.334;9.506;2023-12-20T01:00:17;8.28;;;2.47;;
22318;SDS011;11327;52.334;9.506;2023-12-20T01:03:38;10.45;;;2.30;;
22318;SDS011;11327;52.334;9.506;2023-12-20T01:06:59;6.55;;;2.27;;
22318;SDS011;11327;52.334;9.506;2023-12-20T01:10:19;9.78;;;2.15;;
22318;SDS011;11327;52.334;9.506;2023-12-20T01:13:40;5.97;;;1.75;;
22318;SDS011;11327;52.334;9.506;2023-12-20T01:17:01;8.90;;;2.30;;
22318;SDS011;11327;52.334;9.506;2023-12-20T01:20:22;10.32;;;2.20;;
22318;SDS011;11327;52.334;9.506;2023-12-20T01:23:43;7.75;;;2.10;;
22318;SDS011;11327;52.334;9.506;2023-12-20T01:27:04;8.75;;;2.27;;
22318;SDS011;11327;52.334;9.506;2023-12-20T01:30:24;11.57;;;2.17;;
22318;SDS011;11327;52.334;9.506;2023-12-20T01:33:45;8.63;;;2.25;;
22318;SDS011;11327;52.334;9.506;2023-12-20T01:37:06;7.22;;;2.42;;
22318;SDS011;11327;52.334;9.506;2023-12-20T01:40:27;6.87;;;2.20;;
22318;SDS011;11327;52.334;9.506;2023-12-20T01:43:47;10.95;;;2.55;;
22318;SDS011;11327;52.334;9.506;2023-12-20T01:47:08;6.25;;;2.05;;
22318;SDS011;11327;52.334;9.506;2023-12-20T01:50:29;8.25;;;2.27;;
22318;SDS011;11327;52.334;9.506;2023-12-20T01:53:51;8.90;;;2.47;;
22318;SDS011;11327;52.334;9.506;2023-12-20T01:57:14;8.15;;;2.50;;
22318;SDS011;11327;52.334;9.506;2023-12-20T02:00:35;8.55;;;2.55;;
22318;SDS011;11327;52.334;9.506;2023-12-20T02:03:57;9.55;;;2.90;;
22318;SDS011;11327;52.334;9.506;2023-12-20T02:07:19;10.30;;;2.75;;
22318;SDS011;11327;52.334;9.506;2023-12-20T02:10:41;9.53;;;2.83;;
22318;SDS011;11327;52.334;9.506;2023-12-20T02:14:02;11.65;;;3.60;;
22318;SDS011;11327;52.334;9.506;2023-12-20T02:17:23;9.50;;;3.22;;
22318;SDS011;11327;52.334;9.506;2023-12-20T02:20:44;9.23;;;3.05;;
22318;SDS011;11327;52.334;9.506;2023-12-20T02:24:05;11.12;;;3.33;;
22318;SDS011;11327;52.334;9.506;2023-12-20T02:27:26;9.13;;;3.02;;
22318;SDS011;11327;52.334;9.506;2023-12-20T02:30:48;6.20;;;2.65;;
22318;SDS011;11327;52.334;9.506;2023-12-20T02:34:09;9.68;;;2.80;;
22318;SDS011;11327;52.334;9.506;2023-12-20T02:37:30;10.23;;;2.80;;
22318;SDS011;11327;52.334;9.506;2023-12-20T02:40:51;8.30;;;2.70;;
22318;SDS011;11327;52.334;9.506;2023-12-20T02:44:11;8.13;;;2.30;;
22318;SDS011;11327;52.334;9.506;2023-12-20T02:47:32;9.83;;;1.90;;
22318;SDS011;11327;52.334;9.506;2023-12-20T02:50:53;9.70;;;2.08;;
22318;SDS011;11327;52.334;9.506;2023-12-20T02:54:15;8.38;;;1.77;;
22318;SDS011;11327;52.334;9.506;2023-12-20T02:57:36;7.50;;;1.50;;
22318;SDS011;11327;52.334;9.506;2023-12-20T03:00:56;7.83;;;1.20;;
22318;SDS011;11327;52.334;9.506;2023-12-20T03:04:17;6.05;;;1.60;;
22318;SDS011;11327;52.334;9.506;2023-12-20T03:07:38;5.22;;;1.12;;
22318;SDS011;11327;52.334;9.506;2023-12-20T03:10:59;8.38;;;1.10;;
22318;SDS011;11327;52.334;9.506;2023-12-20T03:14:20;6.30;;;1.35;;
22318;SDS011;11327;52.334;9.506;2023-12-20T03:17:41;8.70;;;1.22;;
22318;SDS011;11327;52.334;9.506;2023-12-20T03:21:01;8.85;;;1.15;;
22318;SDS011;11327;52.334;9.506;2023-12-20T03:24:22;7.12;;;1.20;;
22318;SDS011;11327;52.334;9.506;2023-12-20T03:27:43;8.50;;;1.65;;
22318;SDS011;11327;52.334;9.506;2023-12-20T03:31:03;8.73;;;1.50;;
22318;SDS011;11327;52.334;9.506;2023-12-20T03:34:24;7.60;;;1.60;;
22318;SDS011;11327;52.334;9.506;2023-12-20T03:37:45;6.55;;;1.15;;
22318;SDS011;11327;52.334;9.506;2023-12-20T03:41:06;7.33;;;1.40;;
22318;SDS011;11327;52.334;9.506;2023-12-20T03:44:27;8.08;;;1.25;;
22318;SDS011;11327;52.334;9.506;2023-12-20T03:47:48;9.78;;;1.70;;
22318;SDS011;11327;52.334;9.506;2023-12-20T03:51:10;9.50;;;1.82;;
22318;SDS011;11327;52.334;9.506;2023-12-20T03:54:30;9.80;;;1.75;;
22318;SDS011;11327;52.334;9.506;2023-12-20T03:57:51;6.08;;;1.65;;
22318;SDS011;11327;52.334;9.506;2023-12-20T04:01:12;10.93;;;1.80;;
22318;SDS011;11327;52.334;9.506;2023-12-20T04:04:32;6.97;;;1.97;;
22318;SDS011;11327;52.334;9.506;2023-12-20T04:07:53;8.75;;;1.70;;
22318;SDS011;11327;52.334;9.506;2023-12-20T04:11:14;6.22;;;1.85;;
22318;SDS011;11327;52.334;9.506;2023-12-20T04:14:34;8.73;;;2.50;;
22318;SDS011;11327;52.334;9.506;2023-12-20T04:17:55;10.80;;;2.30;;
22318;SDS011;11327;52.334;9.506;2023-12-20T04:21:16;8.60;;;2.22;;
22318;SDS011;11327;52.334;9.506;2023-12-20T04:24:36;8.23;;;2.20;;
22318;SDS011;11327;52.334;9.506;2023-12-20T04:27:57;7.58;;;2.40;;
22318;SDS011;11327;52.334;9.506;2023-12-20T04:31:18;7.30;;;2.12;;
22318;SDS011;11327;52.334;9.506;2023-12-20T04:34:39;8.93;;;2.25;;
22318;SDS011;11327;52.334;9.506;2023-12-20T04:37:59;9.78;;;2.35;;
22318;SDS011;11327;52.334;9.506;2023-12-20T04:41:20;11.40;;;2.90;;
22318;SDS011;11327;52.334;9.506;2023-12-20T04:44:41;9.43;;;2.42;;
22318;SDS011;11327;52.334;9.506;2023-12-20T04:48:04;9.28;;;2.50;;
22318;SDS011;11327;52.334;9.506;2023-12-20T04:51:25;10.55;;;2.90;;
22318;SDS011;11327;52.334;9.506;2023-12-20T04:54:46;8.95;;;2.60;;
22318;SDS011;11327;52.334;9.506;2023-12-20T04:58:06;10.98;;;2.75;;
22318;SDS011;11327;52.334;9.506;2023-12-20T05:01:27;13.85;;;2.90;;
22318;SDS011;11327;52.334;9.506;2023-12-20T05:04:48;8.10;;;2.80;;
22318;SDS011;11327;52.334;9.506;2023-12-20T05:08:09;11.18;;;2.90;;
22318;SDS011;11327;52.334;9.506;2023-12-20T05:11:29;9.08;;;2.92;;
22318;SDS011;11327;52.334;9.506;2023-12-20T05:14:51;11.57;;;2.95;;
22318;SDS011;11327;52.334;9.506;2023-12-20T05:18:14;11.70;;;2.83;;
22318;SDS011;11327;52.334;9.506;2023-12-20T05:21:34;14.93;;;3.25;;
22318;SDS011;11327;52.334;9.506;2023-12-20T05:24:56;10.68;;;3.08;;
22318;SDS011;11327;52.334;9.506;2023-12-20T05:28:16;12.35;;;2.80;;
22318;SDS011;11327;52.334;9.506;2023-12-20T05:31:37;14.18;;;4.45;;
22318;SDS011;11327;52.334;9.506;2023-12-20T05:34:58;11.40;;;4.03;;
22318;SDS011;11327;52.334;9.506;2023-12-20T05:38:19;13.65;;;3.75;;
22318;SDS011;11327;52.334;9.506;2023-12-20T05:41:39;10.68;;;3.47;;
22318;SDS011;11327;52.334;9.506;2023-12-20T05:45:00;11.93;;;3.50;;
22318;SDS011;11327;52.334;9.506;2023-12-20T05:48:21;12.03;;;4.22;;
22318;SDS011;11327;52.334;9.506;2023-12-20T05:51:42;11.22;;;3.40;;
22318;SDS011;11327;52.334;9.506;2023-12-20T05:55:02;11.93;;;3.40;;
22318;SDS011;11327;52.334;9.506;2023-12-20T05:58:23;8.68;;;3.10;;
22318;SDS011;11327;52.334;9.506;2023-12-20T06:01:44;14.55;;;4.37;;
22318;SDS011;11327;52.334;9.506;2023-12-20T06:05:05;11.93;;;3.75;;
22318;SDS011;11327;52.334;9.506;2023-12-20T06:08:26;11.30;;;3.62;;
22318;SDS011;11327;52.334;9.506;2023-12-20T06:11:47;11.22;;;3.58;;
22318;SDS011;11327;52.334;9.506;2023-12-20T06:15:07;15.32;;;3.95;;
22318;SDS011;11327;52.334;9.506;2023-12-20T06:18:28;17.27;;;4.40;;
22318;SDS011;11327;52.334;9.506;2023-12-20T06:21:49;15.25;;;4.45;;
22318;SDS011;11327;52.334;9.506;2023-12-20T06:25:10;16.62;;;3.80;;
22318;SDS011;11327;52.334;9.506;2023-12-20T06:28:31;13.20;;;3.83;;
22318;SDS011;11327;52.334;9.506;2023-12-20T06:31:51;9.28;;;3.02;;
22318;SDS011;11327;52.334;9.506;2023-12-20T06:35:12;10.85;;;3.27;;
22318;SDS011;11327;52.334;9.506;2023-12-20T06:38:33;13.85;;;3.85;;
22318;SDS011;11327;52.334;9.506;2023-12-20T06:41:53;13.53;;;3.55;;
22318;SDS011;11327;52.334;9.506;2023-12-20T06:45:14;12.68;;;3.62;;
22318;SDS011;11327;52.334;9.506;2023-12-20T06:48:35;9.35;;;3.40;;
22318;SDS011;11327;52.334;9.506;2023-12-20T06:51:55;12.63;;;3.20;;
22318;SDS011;11327;52.334;9.506;2023-12-20T06:55:16;14.03;;;3.35;;
22318;SDS011;11327;52.334;9.506;2023-12-20T06:58:37;14.87;;;3.90;;
22318;SDS011;11327;52.334;9.506;2023-12-20T07:01:58;11.10;;;3.45;;
22318;SDS011;11327;52.334;9.506;2023-12-20T07:05:19;14.18;;;3.60;;
22318;SDS011;11327;52.334;9.506;2023-12-20T07:08:40;11.63;;;3.30;;
22318;SDS011;11327;52.334;9.506;2023-12-20T07:12:01;19.30;;;3.87;;
22318;SDS011;11327;52.334;9.506;2023-12-20T07:15:22;18.57;;;4.22;;
22318;SDS011;11327;52.334;9.506;2023-12-20T07:18:43;12.07;;;3.85;;
22318;SDS011;11327;52.334;9.506;2023-12-20T07:22:04;12.53;;;3.65;;
22318;SDS011;11327;52.334;9.506;2023-12-20T07:25:26;13.00;;;4.08;;
22318;SDS011;11327;52.334;9.506;2023-12-20T07:28:47;13.50;;;4.10;;
22318;SDS011;11327;52.334;9.506;2023-12-20T07:32:07;13.83;;;3.87;;
22318;SDS011;11327;52.334;9.506;2023-12-20T07:35:28;13.60;;;2.85;;
22318;SDS011;11327;52.334;9.506;2023-12-20T07:38:49;11.08;;;2.95;;
22318;SDS011;11327;52.334;9.506;2023-12-20T07:42:10;17.90;;;4.15;;
22318;SDS011;11327;52.334;9.506;2023-12-20T07:45:31;14.50;;;4.67;;
22318;SDS011;11327;52.334;9.506;2023-12-20T07:48:51;14.45;;;4.10;;
22318;SDS011;11327;52.334;9.506;2023-12-20T07:52:12;12.98;;;4.37;;
22318;SDS011;11327;52.334;9.506;2023-12-20T07:55:33;16.60;;;4.70;;
22318;SDS011;11327;52.334;9.506;2023-12-20T07:58:54;12.30;;;3.90;;
22318;SDS011;11327;52.334;9.506;2023-12-20T08:02:15;17.05;;;5.40;;
22318;SDS011;11327;52.334;9.506;2023-12-20T08:05:36;12.68;;;4.92;;
22318;SDS011;11327;52.334;9.506;2023-12-20T08:09:00;15.53;;;4.37;;
22318;SDS011;11327;52.334;9.506;2023-12-20T08:12:21;14.28;;;4.53;;
22318;SDS011;11327;52.334;9.506;2023-12-20T08:15:41;16.02;;;4.35;;
22318;SDS011;11327;52.334;9.506;2023-12-20T08:19:02;13.58;;;4.20;;
22318;SDS011;11327;52.334;9.506;2023-12-20T08:22:23;13.75;;;3.47;;
22318;SDS011;11327;52.334;9.506;2023-12-20T08:25:44;13.95;;;4.12;;
22318;SDS011;11327;52.334;9.506;2023-12-20T08:29:04;16.00;;;4.30;;
22318;SDS011;11327;52.334;9.506;2023-12-20T08:32:26;13.55;;;5.08;;
22318;SDS011;11327;52.334;9.506;2023-12-20T08:35:47;16.30;;;4.87;;
22318;SDS011;11327;52.334;9.506;2023-12-20T08:39:08;14.55;;;4.25;;
22318;SDS011;11327;52.334;9.506;2023-12-20T08:42:28;15.20;;;5.65;;
22318;SDS011;11327;52.334;9.506;2023-12-20T08:45:51;11.50;;;4.00;;
22318;SDS011;11327;52.334;9.506;2023-12-20T08:49:12;16.53;;;4.57;;
22318;SDS011;11327;52.334;9.506;2023-12-20T08:52:32;13.60;;;4.47;;
22318;SDS011;11327;52.334;9.506;2023-12-20T08:55:53;13.50;;;4.05;;
22318;SDS011;11327;52.334;9.506;2023-12-20T08:59:14;14.55;;;4.95;;
22318;SDS011;11327;52.334;9.506;2023-12-20T09:02:35;12.95;;;3.85;;
22318;SDS011;11327;52.334;9.506;2023-12-20T09:05:56;12.90;;;4.00;;
22318;SDS011;11327;52.334;9.506;2023-12-20T09:09:17;14.68;;;4.53;;
22318;SDS011;11327;52.334;9.506;2023-12-20T09:12:38;13.30;;;4.55;;
22318;SDS011;11327;52.334;9.506;2023-12-20T09:16:01;12.35;;;4.40;;
22318;SDS011;11327;52.334;9.506;2023-12-20T09:19:23;10.13;;;3.60;;
22318;SDS011;11327;52.334;9.506;2023-12-20T09:22:43;15.65;;;4.10;;
22318;SDS011;11327;52.334;9.506;2023-12-20T09:26:04;18.23;;;5.28;;
22318;SDS011;11327;52.334;9.506;2023-12-20T09:29:25;13.03;;;3.80;;
22318;SDS011;11327;52.334;9.506;2023-12-20T09:32:46;12.58;;;3.77;;
22318;SDS011;11327;52.334;9.506;2023-12-20T09:36:06;14.85;;;3.52;;
22318;SDS011;11327;52.334;9.506;2023-12-20T09:39:27;14.43;;;4.00;;
22318;SDS011;11327;52.334;9.506;2023-12-20T09:42:58;12.95;;;3.30;;
22318;SDS011;11327;52.334;9.506;2023-12-20T09:46:21;10.50;;;3.62;;
22318;SDS011;11327;52.334;9.506;2023-12-20T09:49:45;10.72;;;3.52;;
22318;SDS011;11327;52.334;9.506;2023-12-20T09:53:07;12.00;;;3.40;;
22318;SDS011;11327;52.334;9.506;2023-12-20T09:56:30;13.08;;;3.40;;
22318;SDS011;11327;52.334;9.506;2023-12-20T09:59:51;9.00;;;2.98;;
22318;SDS011;11327;52.334;9.506;2023-12-20T10:03:12;11.90;;;3.50;;
22318;SDS011;11327;52.334;9.506;2023-12-20T10:06:43;11.03;;;3.08;;
22318;SDS011;11327;52.334;9.506;2023-12-20T10:10:05;14.15;;;3.30;;
22318;SDS011;11327;52.334;9.506;2023-12-20T10:13:27;14.90;;;3.50;;
22318;SDS011;11327;52.334;9.506;2023-12-20T10:16:47;7.95;;;2.80;;
22318;SDS011;11327;52.334;9.506;2023-12-20T10:20:09;13.90;;;3.58;;
22318;SDS011;11327;52.334;9.506;2023-12-20T10:23:30;13.10;;;3.58;;
22318;SDS011;11327;52.334;9.506;2023-12-20T10:27:05;12.93;;;3.27;;
22318;SDS011;11327;52.334;9.506;2023-12-20T10:30:24;11.93;;;3.35;;
22318;SDS011;11327;52.334;9.506;2023-12-20T10:33:47;13.10;;;3.80;;
22318;SDS011;11327;52.334;9.506;2023-12-20T10:37:08;10.58;;;3.12;;
22318;SDS011;11327;52.334;9.506;2023-12-20T10:40:29;14.23;;;3.77;;
22318;SDS011;11327;52.334;9.506;2023-12-20T10:43:55;10.65;;;3.47;;
22318;SDS011;11327;52.334;9.506;2023-12-20T10:47:18;10.23;;;3.75;;
22318;SDS011;11327;52.334;9.506;2023-12-20T10:50:40;11.28;;;3.42;;
22318;SDS011;11327;52.334;9.506;2023-12-20T10:54:01;9.65;;;3.47;;
22318;SDS011;11327;52.334;9.506;2023-12-20T10:57:23;10.55;;;3.37;;
22318;SDS011;11327;52.334;9.506;2023-12-20T11:00:47;9.93;;;3.25;;
22318;SDS011;11327;52.334;9.506;2023-12-20T11:04:11;9.90;;;3.33;;
22318;SDS011;11327;52.334;9.506;2023-12-20T11:07:36;10.48;;;3.55;;
22318;SDS011;11327;52.334;9.506;2023-12-20T11:14:52;9.18;;;3.58;;
22318;SDS011;11327;52.334;9.506;2023-12-20T11:18:16;11.08;;;3.95;;
22318;SDS011;11327;52.334;9.506;2023-12-20T11:21:37;9.30;;;3.62;;
22318;SDS011;11327;52.334;9.506;2023-12-20T11:24:58;9.33;;;3.67;;
22318;SDS011;11327;52.334;9.506;2023-12-20T11:28:22;9.55;;;3.70;;
22318;SDS011;11327;52.334;9.506;2023-12-20T11:31:44;11.35;;;3.40;;
22318;SDS011;11327;52.334;9.506;2023-12-20T11:38:36;10.15;;;4.08;;
22318;SDS011;11327;52.334;9.506;2023-12-20T11:41:57;13.83;;;3.75;;
22318;SDS011;11327;52.334;9.506;2023-12-20T11:45:23;6.17;;;1.98;;
22318;SDS011;11327;52.334;9.506;2023-12-20T11:48:46;2.72;;;0.70;;
22318;SDS011;11327;52.334;9.506;2023-12-20T11:52:07;4.90;;;2.13;;
22318;SDS011;11327;52.334;9.506;2023-12-20T11:55:28;3.57;;;1.07;;
22318;SDS011;11327;52.334;9.506;2023-12-20T11:58:49;3.33;;;1.10;;
22318;SDS011;11327;52.334;9.506;2023-12-20T12:02:11;1.35;;;0.60;;
22318;SDS011;11327;52.334;9.506;2023-12-20T12:05:32;4.95;;;0.53;;
22318;SDS011;11327;52.334;9.506;2023-12-20T12:08:54;2.08;;;0.62;;
22318;SDS011;11327;52.334;9.506;2023-12-20T12:12:16;2.98;;;0.65;;
22318;SDS011;11327;52.334;9.506;2023-12-20T12:15:38;2.37;;;0.62;;
22318;SDS011;11327;52.334;9.506;2023-12-20T12:19:00;2.65;;;0.55;;
22318;SDS011;11327;52.334;9.506;2023-12-20T12:22:21;3.05;;;0.60;;
22318;SDS011;11327;52.334;9.506;2023-12-20T12:25:43;2.12;;;0.60;;
22318;SDS011;11327;52.334;9.506;2023-12-20T12:29:08;4.92;;;0.42;;
22318;SDS011;11327;52.334;9.506;2023-12-20T12:32:30;3.62;;;0.60;;
22318;SDS011;11327;52.334;9.506;2023-12-20T12:35:50;3.37;;;0.65;;
22318;SDS011;11327;52.334;9.506;2023-12-20T12:39:12;4.22;;;0.60;;
22318;SDS011;11327;52.334;9.506;2023-12-20T12:42:33;2.58;;;0.70;;
22318;SDS011;11327;52.334;9.506;2023-12-20T12:45:54;3.37;;;0.80;;
22318;SDS011;11327;52.334;9.506;2023-12-20T12:49:15;3.35;;;0.72;;
22318;SDS011;11327;52.334;9.506;2023-12-20T12:52:36;3.70;;;0.70;;
22318;SDS011;11327;52.334;9.506;2023-12-20T12:55:57;2.33;;;0.72;;
22318;SDS011;11327;52.334;9.506;2023-12-20T12:59:18;1.90;;;0.40;;
22318;SDS011;11327;52.334;9.506;2023-12-20T13:02:39;2.98;;;0.60;;
22318;SDS011;11327;52.334;9.506;2023-12-20T13:06:02;4.42;;;0.80;;
22318;SDS011;11327;52.334;9.506;2023-12-20T13:09:23;4.17;;;0.93;;
22318;SDS011;11327;52.334;9.506;2023-12-20T13:12:44;4.60;;;1.07;;
22318;SDS011;11327;52.334;9.506;2023-12-20T13:16:04;4.08;;;0.98;;
22318;SDS011;11327;52.334;9.506;2023-12-20T13:19:25;4.30;;;0.90;;
22318;SDS011;11327;52.334;9.506;2023-12-20T13:22:46;3.40;;;0.80;;
22318;SDS011;11327;52.334;9.506;2023-12-20T13:26:07;3.87;;;1.20;;
22318;SDS011;11327;52.334;9.506;2023-12-20T13:29:27;3.22;;;1.05;;
22318;SDS011;11327;52.334;9.506;2023-12-20T13:32:48;3.37;;;1.10;;
22318;SDS011;11327;52.334;9.506;2023-12-20T13:36:09;4.00;;;1.77;;
22318;SDS011;11327;52.334;9.506;2023-12-20T13:39:30;3.72;;;1.05;;
22318;SDS011;11327;52.334;9.506;2023-12-20T13:42:51;4.37;;;1.22;;
22318;SDS011;11327;52.334;9.506;2023-12-20T13:46:12;3.02;;;1.27;;
22318;SDS011;11327;52.334;9.506;2023-12-20T13:49:34;4.10;;;1.20;;
22318;SDS011;11327;52.334;9.506;2023-12-20T13:52:55;7.58;;;1.40;;
22318;SDS011;11327;52.334;9.506;2023-12-20T13:56:16;5.25;;;1.22;;
22318;SDS011;11327;52.334;9.506;2023-12-20T13:59:37;6.33;;;1.40;;
22318;SDS011;11327;52.334;9.506;2023-12-20T14:02:57;4.08;;;1.27;;
22318;SDS011;11327;52.334;9.506;2023-12-20T14:06:19;4.50;;;1.07;;
22318;SDS011;11327;52.334;9.506;2023-12-20T14:09:40;5.35;;;1.15;;
22318;SDS011;11327;52.334;9.506;2023-12-20T14:13:03;5.72;;;1.50;;
22318;SDS011;11327;52.334;9.506;2023-12-20T14:16:24;6.25;;;1.20;;
22318;SDS011;11327;52.334;9.506;2023-12-20T14:19:45;5.03;;;1.00;;
22318;SDS011;11327;52.334;9.506;2023-12-20T14:23:05;6.80;;;1.10;;
22318;SDS011;11327;52.334;9.506;2023-12-20T14:26:26;6.42;;;1.15;;
22318;SDS011;11327;52.334;9.506;2023-12-20T14:29:48;3.95;;;0.98;;
22318;SDS011;11327;52.334;9.506;2023-12-20T14:33:09;5.42;;;1.00;;
22318;SDS011;11327;52.334;9.506;2023-12-20T14:36:30;6.10;;;1.00;;
22318;SDS011;11327;52.334;9.506;2023-12-20T14:39:51;4.45;;;0.98;;
22318;SDS011;11327;52.334;9.506;2023-12-20T14:43:12;6.35;;;1.22;;
22318;SDS011;11327;52.334;9.506;2023-12-20T14:46:32;4.20;;;1.27;;
22318;SDS011;11327;52.334;9.506;2023-12-20T14:49:53;6.65;;;1.80;;
22318;SDS011;11327;52.334;9.506;2023-12-20T14:53:14;6.67;;;1.20;;
22318;SDS011;11327;52.334;9.506;2023-12-20T14:56:39;7.35;;;1.10;;
22318;SDS011;11327;52.334;9.506;2023-12-20T15:00:00;6.70;;;1.15;;
22318;SDS011;11327;52.334;9.506;2023-12-20T15:03:21;6.95;;;1.52;;
22318;SDS011;11327;52.334;9.506;2023-12-20T15:06:42;4.95;;;1.12;;
22318;SDS011;11327;52.334;9.506;2023-12-20T15:10:04;7.50;;;1.00;;
22318;SDS011;11327;52.334;9.506;2023-12-20T15:13:25;8.30;;;1.10;;
22318;SDS011;11327;52.334;9.506;2023-12-20T15:16:46;7.10;;;1.10;;
22318;SDS011;11327;52.334;9.506;2023-12-20T15:20:09;5.62;;;1.10;;
22318;SDS011;11327;52.334;9.506;2023-12-20T15:23:33;3.85;;;0.95;;
22318;SDS011;11327;52.334;9.506;2023-12-20T15:26:54;5.92;;;1.22;;
22318;SDS011;11327;52.334;9.506;2023-12-20T15:30:16;4.15;;;0.80;;
22318;SDS011;11327;52.334;9.506;2023-12-20T15:33:41;5.37;;;1.22;;
22318;SDS011;11327;52.334;9.506;2023-12-20T15:37:02;6.37;;;1.00;;
22318;SDS011;11327;52.334;9.506;2023-12-20T15:40:23;4.08;;;1.10;;
22318;SDS011;11327;52.334;9.506;2023-12-20T15:43:44;6.60;;;0.93;;
22318;SDS011;11327;52.334;9.506;2023-12-20T15:47:05;5.12;;;1.10;;
22318;SDS011;11327;52.334;9.506;2023-12-20T15:50:26;4.28;;;0.90;;
22318;SDS011;11327;52.334;9.506;2023-12-20T15:53:47;5.28;;;1.20;;
22318;SDS011;11327;52.334;9.506;2023-12-20T15:57:08;4.15;;;1.15;;
22318;SDS011;11327;52.334;9.506;2023-12-20T16:00:30;4.28;;;1.10;;
22318;SDS011;11327;52.334;9.506;2023-12-20T16:03:51;4.25;;;1.30;;
22318;SDS011;11327;52.334;9.506;2023-12-20T16:07:12;7.37;;;1.40;;
22318;SDS011;11327;52.334;9.506;2023-12-20T16:10:32;7.30;;;1.80;;
22318;SDS011;11327;52.334;9.506;2023-12-20T16:13:53;9.10;;;2.17;;
22318;SDS011;11327;52.334;9.506;2023-12-20T16:17:14;3.33;;;0.93;;
22318;SDS011;11327;52.334;9.506;2023-12-20T16:20:40;3.83;;;1.02;;
22318;SDS011;11327;52.334;9.506;2023-12-20T16:23:59;5.10;;;1.02;;
22318;SDS011;11327;52.334;9.506;2023-12-20T16:27:20;3.85;;;0.75;;
22318;SDS011;11327;52.334;9.506;2023-12-20T16:30:40;6.20;;;1.40;;
22318;SDS011;11327;52.334;9.506;2023-12-20T16:34:01;6.00;;;1.30;;
22318;SDS011;11327;52.334;9.506;2023-12-20T16:37:23;5.97;;;1.30;;
22318;SDS011;11327;52.334;9.506;2023-12-20T16:40:43;5.53;;;1.90;;
22318;SDS011;11327;52.334;9.506;2023-12-20T16:44:04;9.18;;;2.87;;
22318;SDS011;11327;52.334;9.506;2023-12-20T16:47:25;15.85;;;5.08;;
22318;SDS011;11327;52.334;9.506;2023-12-20T16:50:46;12.63;;;2.85;;
22318;SDS011;11327;52.334;9.506;2023-12-20T16:54:06;9.80;;;3.40;;
22318;SDS011;11327;52.334;9.506;2023-12-20T16:57:27;8.98;;;3.87;;
22318;SDS011;11327;52.334;9.506;2023-12-20T17:00:48;6.67;;;2.40;;
22318;SDS011;11327;52.334;9.506;2023-12-20T17:04:09;12.07;;;6.03;;
22318;SDS011;11327;52.334;9.506;2023-12-20T17:07:29;8.68;;;3.65;;
22318;SDS011;11327;52.334;9.506;2023-12-20T17:10:50;6.33;;;2.58;;
22318;SDS011;11327;52.334;9.506;2023-12-20T17:14:11;9.43;;;2.60;;
22318;SDS011;11327;52.334;9.506;2023-12-20T17:17:33;5.17;;;2.37;;
22318;SDS011;11327;52.334;9.506;2023-12-20T17:20:54;5.35;;;2.50;;
22318;SDS011;11327;52.334;9.506;2023-12-20T17:24:14;6.25;;;1.80;;
22318;SDS011;11327;52.334;9.506;2023-12-20T17:27:35;6.15;;;1.45;;
22318;SDS011;11327;52.334;9.506;2023-12-20T17:30:57;3.85;;;1.60;;
22318;SDS011;11327;52.334;9.506;2023-12-20T17:34:17;3.92;;;1.50;;
22318;SDS011;11327;52.334;9.506;2023-12-20T17:37:38;5.67;;;1.72;;
22318;SDS011;11327;52.334;9.506;2023-12-20T17:40:59;3.87;;;1.62;;
22318;SDS011;11327;52.334;9.506;2023-12-20T17:44:20;5.58;;;1.85;;
22318;SDS011;11327;52.334;9.506;2023-12-20T17:47:42;5.15;;;2.10;;
22318;SDS011;11327;52.334;9.506;2023-12-20T17:51:04;5.12;;;1.87;;
22318;SDS011;11327;52.334;9.506;2023-12-20T17:54:25;5.08;;;2.05;;
22318;SDS011;11327;52.334;9.506;2023-12-20T17:57:46;6.47;;;2.67;;
22318;SDS011;11327;52.334;9.506;2023-12-20T18:01:07;6.92;;;2.08;;
22318;SDS011;11327;52.334;9.506;2023-12-20T18:04:28;4.75;;;2.60;;
22318;SDS011;11327;52.334;9.506;2023-12-20T18:07:53;5.92;;;2.00;;
22318;SDS011;11327;52.334;9.506;2023-12-20T18:11:12;6.30;;;2.72;;
22318;SDS011;11327;52.334;9.506;2023-12-20T18:14:33;7.45;;;3.35;;
22318;SDS011;11327;52.334;9.506;2023-12-20T18:17:54;6.05;;;3.20;;
22318;SDS011;11327;52.334;9.506;2023-12-20T18:21:15;5.78;;;3.75;;
22318;SDS011;11327;52.334;9.506;2023-12-20T18:24:35;6.05;;;3.02;;
22318;SDS011;11327;52.334;9.506;2023-12-20T18:27:56;11.25;;;5.50;;
22318;SDS011;11327;52.334;9.506;2023-12-20T18:31:17;7.00;;;4.87;;
22318;SDS011;11327;52.334;9.506;2023-12-20T18:34:37;10.18;;;5.80;;
22318;SDS011;11327;52.334;9.506;2023-12-20T18:37:58;7.25;;;3.05;;
22318;SDS011;11327;52.334;9.506;2023-12-20T18:41:19;6.97;;;2.95;;
22318;SDS011;11327;52.334;9.506;2023-12-20T18:44:39;5.97;;;2.60;;
22318;SDS011;11327;52.334;9.506;2023-12-20T18:48:00;6.10;;;3.20;;
22318;SDS011;11327;52.334;9.506;2023-12-20T18:51:21;13.68;;;4.28;;
22318;SDS011;11327;52.334;9.506;2023-12-20T18:54:41;6.65;;;2.92;;
22318;SDS011;11327;52.334;9.506;2023-12-20T18:58:03;6.72;;;3.17;;
22318;SDS011;11327;52.334;9.506;2023-12-20T19:01:24;7.22;;;3.10;;
22318;SDS011;11327;52.334;9.506;2023-12-20T19:04:44;9.95;;;3.55;;
22318;SDS011;11327;52.334;9.506;2023-12-20T19:08:05;10.25;;;4.80;;
22318;SDS011;11327;52.334;9.506;2023-12-20T19:11:27;9.73;;;5.08;;
22318;SDS011;11327;52.334;9.506;2023-12-20T19:14:48;13.28;;;6.10;;
22318;SDS011;11327;52.334;9.506;2023-12-20T19:18:08;13.13;;;5.85;;
22318;SDS011;11327;52.334;9.506;2023-12-20T19:21:29;14.40;;;6.58;;
22318;SDS011;11327;52.334;9.506;2023-12-20T19:24:50;15.20;;;7.55;;
22318;SDS011;11327;52.334;9.506;2023-12-20T19:28:10;17.00;;;7.83;;
22318;SDS011;11327;52.334;9.506;2023-12-20T19:31:31;16.55;;;8.20;;
22318;SDS011;11327;52.334;9.506;2023-12-20T19:34:52;16.60;;;8.25;;
22318;SDS011;11327;52.334;9.506;2023-12-20T19:38:12;16.48;;;8.10;;
22318;SDS011;11327;52.334;9.506;2023-12-20T19:41:33;15.68;;;7.97;;
22318;SDS011;11327;52.334;9.506;2023-12-20T19:44:54;15.13;;;7.92;;
22318;SDS011;11327;52.334;9.506;2023-12-20T19:48:15;18.40;;;8.53;;
22318;SDS011;11327;52.334;9.506;2023-12-20T19:51:36;17.05;;;8.38;;
22318;SDS011;11327;52.334;9.506;2023-12-20T19:54:57;16.65;;;8.63;;
22318;SDS011;11327;52.334;9.506;2023-12-20T19:58:19;15.03;;;8.08;;
22318;SDS011;11327;52.334;9.506;2023-12-20T20:01:40;17.37;;;8.38;;
22318;SDS011;11327;52.334;9.506;2023-12-20T20:05:01;16.75;;;8.40;;
22318;SDS011;11327;52.334;9.506;2023-12-20T20:08:22;16.90;;;8.88;;
22318;SDS011;11327;52.334;9.506;2023-12-20T20:11:44;14.33;;;7.97;;